sensor_id;sensor_type;location;lat;lon;timestamp;temperature;humidity
23783;DHT22;12071;50.850;4.446;2024-03-25T00:01:58;6.10;99.90
23783;DHT22;12071;50.850;4.446;2024-03-25T00:04:24;6.00;99.90
23783;DHT22;12071;50.850;4.446;2024-03-25T00:06:50;6.10;99.90
23783;DHT22;12071;50.850;4.446;2024-03-25T00:09:16;6.00;99.90
23783;DHT22;12071;50.850;4.446;2024-03-25T00:11:43;5.70;99.90
23783;DHT22;12071;50.850;4.446;2024-03-25T00:14:09;5.80;99.90
23783;DHT22;12071;50.850;4.446;2024-03-25T00:16:35;5.80;99.90
23783;DHT22;12071;50.850;4.446;2024-03-25T00:19:01;5.70;99.90
23783;DHT22;12071;50.850;4.446;2024-03-25T00:21:27;5.90;99.90
23783;DHT22;12071;50.850;4.446;2024-03-25T00:23:54;5.90;99.90
23783;DHT22;12071;50.850;4.446;2024-03-25T00:26:23;5.90;99.90
23783;DHT22;12071;50.850;4.446;2024-03-25T00:28:49;5.80;99.90
23783;DHT22;12071;50.850;4.446;2024-03-25T00:31:14;5.70;99.90
23783;DHT22;12071;50.850;4.446;2024-03-25T00:33:40;5.70;99.90
23783;DHT22;12071;50.850;4.446;2024-03-25T00:36:06;5.60;99.90
23783;DHT22;12071;50.850;4.446;2024-03-25T00:38:33;5.50;99.90
23783;DHT22;12071;50.850;4.446;2024-03-25T00:40:58;5.60;1.00
23783;DHT22;12071;50.850;4.446;2024-03-25T00:43:24;5.40;1.00
23783;DHT22;12071;50.850;4.446;2024-03-25T00:45:50;5.50;1.00
23783;DHT22;12071;50.850;4.446;2024-03-25T00:48:15;5.40;1.00
23783;DHT22;12071;50.850;4.446;2024-03-25T00:50:41;5.50;1.00
23783;DHT22;12071;50.850;4.446;2024-03-25T00:53:06;5.40;99.90
23783;DHT22;12071;50.850;4.446;2024-03-25T00:55:33;5.20;1.00
23783;DHT22;12071;50.850;4.446;2024-03-25T00:58:03;5.10;1.00
23783;DHT22;12071;50.850;4.446;2024-03-25T01:00:29;5.40;1.00
23783;DHT22;12071;50.850;4.446;2024-03-25T01:02:55;5.10;1.00
23783;DHT22;12071;50.850;4.446;2024-03-25T01:05:21;4.80;1.00
23783;DHT22;12071;50.850;4.446;2024-03-25T01:07:46;4.80;1.00
23783;DHT22;12071;50.850;4.446;2024-03-25T01:10:12;4.90;1.00
23783;DHT22;12071;50.850;4.446;2024-03-25T01:12:38;4.90;1.00
23783;DHT22;12071;50.850;4.446;2024-03-25T01:15:04;5.10;1.00
23783;DHT22;12071;50.850;4.446;2024-03-25T01:17:31;5.20;1.00
23783;DHT22;12071;50.850;4.446;2024-03-25T01:19:56;5.00;1.00
23783;DHT22;12071;50.850;4.446;2024-03-25T01:22:22;4.60;1.00
23783;DHT22;12071;50.850;4.446;2024-03-25T01:24:48;4.40;1.00
23783;DHT22;12071;50.850;4.446;2024-03-25T01:27:13;4.80;1.00
23783;DHT22;12071;50.850;4.446;2024-03-25T01:29:39;5.20;1.00
23783;DHT22;12071;50.850;4.446;2024-03-25T01:32:05;5.30;1.00
23783;DHT22;12071;50.850;4.446;2024-03-25T01:34:31;5.10;1.00
23783;DHT22;12071;50.850;4.446;2024-03-25T01:36:56;5.30;1.00
23783;DHT22;12071;50.850;4.446;2024-03-25T01:39:22;5.10;1.00
23783;DHT22;12071;50.850;4.446;2024-03-25T01:41:50;5.10;1.00
23783;DHT22;12071;50.850;4.446;2024-03-25T01:44:16;5.30;1.00
23783;DHT22;12071;50.850;4.446;2024-03-25T01:46:42;5.30;99.90
23783;DHT22;12071;50.850;4.446;2024-03-25T01:49:08;5.10;99.90
23783;DHT22;12071;50.850;4.446;2024-03-25T01:51:35;4.90;99.90
23783;DHT22;12071;50.850;4.446;2024-03-25T01:54:03;4.60;1.00
23783;DHT22;12071;50.850;4.446;2024-03-25T01:56:31;4.70;1.00
23783;DHT22;12071;50.850;4.446;2024-03-25T01:58:59;4.90;1.00
23783;DHT22;12071;50.850;4.446;2024-03-25T02:01:26;4.80;1.00
23783;DHT22;12071;50.850;4.446;2024-03-25T02:03:53;4.50;1.00
23783;DHT22;12071;50.850;4.446;2024-03-25T02:06:20;4.40;1.00
23783;DHT22;12071;50.850;4.446;2024-03-25T02:08:48;4.60;1.00
23783;DHT22;12071;50.850;4.446;2024-03-25T02:11:14;4.60;1.00
23783;DHT22;12071;50.850;4.446;2024-03-25T02:13:40;4.50;1.00
23783;DHT22;12071;50.850;4.446;2024-03-25T02:16:07;4.50;1.00
23783;DHT22;12071;50.850;4.446;2024-03-25T02:18:33;4.60;1.00
23783;DHT22;12071;50.850;4.446;2024-03-25T02:20:59;4.60;1.00
23783;DHT22;12071;50.850;4.446;2024-03-25T02:23:28;4.20;1.00
23783;DHT22;12071;50.850;4.446;2024-03-25T02:25:54;4.30;1.00
23783;DHT22;12071;50.850;4.446;2024-03-25T02:28:20;4.40;1.00
23783;DHT22;12071;50.850;4.446;2024-03-25T02:30:46;4.40;1.00
23783;DHT22;12071;50.850;4.446;2024-03-25T02:33:12;4.10;1.00
23783;DHT22;12071;50.850;4.446;2024-03-25T02:35:39;4.10;1.00
23783;DHT22;12071;50.850;4.446;2024-03-25T02:38:06;4.10;1.00
23783;DHT22;12071;50.850;4.446;2024-03-25T02:40:32;4.30;1.00
23783;DHT22;12071;50.850;4.446;2024-03-25T02:42:59;4.30;1.00
23783;DHT22;12071;50.850;4.446;2024-03-25T02:45:25;4.40;1.00
23783;DHT22;12071;50.850;4.446;2024-03-25T02:47:51;4.60;1.00
23783;DHT22;12071;50.850;4.446;2024-03-25T02:50:17;4.60;1.00
23783;DHT22;12071;50.850;4.446;2024-03-25T02:52:42;4.70;1.00
23783;DHT22;12071;50.850;4.446;2024-03-25T02:55:08;4.60;1.00
23783;DHT22;12071;50.850;4.446;2024-03-25T02:57:34;4.60;1.00
23783;DHT22;12071;50.850;4.446;2024-03-25T03:00:00;4.60;1.00
23783;DHT22;12071;50.850;4.446;2024-03-25T03:02:26;4.80;99.90
23783;DHT22;12071;50.850;4.446;2024-03-25T03:04:51;4.80;99.90
23783;DHT22;12071;50.850;4.446;2024-03-25T03:07:17;4.80;99.90
23783;DHT22;12071;50.850;4.446;2024-03-25T03:09:43;4.50;99.90
23783;DHT22;12071;50.850;4.446;2024-03-25T03:12:09;4.40;99.90
23783;DHT22;12071;50.850;4.446;2024-03-25T03:14:34;4.10;1.00
23783;DHT22;12071;50.850;4.446;2024-03-25T03:17:00;4.30;1.00
23783;DHT22;12071;50.850;4.446;2024-03-25T03:19:30;3.90;1.00
23783;DHT22;12071;50.850;4.446;2024-03-25T03:21:56;3.70;1.00
23783;DHT22;12071;50.850;4.446;2024-03-25T03:24:22;3.70;1.00
23783;DHT22;12071;50.850;4.446;2024-03-25T03:26:48;3.60;1.00
23783;DHT22;12071;50.850;4.446;2024-03-25T03:29:14;3.80;1.00
23783;DHT22;12071;50.850;4.446;2024-03-25T03:31:40;3.90;1.00
23783;DHT22;12071;50.850;4.446;2024-03-25T03:34:06;3.90;1.00
23783;DHT22;12071;50.850;4.446;2024-03-25T03:36:32;3.70;1.00
23783;DHT22;12071;50.850;4.446;2024-03-25T03:38:57;3.70;1.00
23783;DHT22;12071;50.850;4.446;2024-03-25T03:41:23;3.90;1.00
23783;DHT22;12071;50.850;4.446;2024-03-25T03:43:49;3.80;1.00
23783;DHT22;12071;50.850;4.446;2024-03-25T03:46:14;4.10;1.00
23783;DHT22;12071;50.850;4.446;2024-03-25T03:48:40;3.80;1.00
23783;DHT22;12071;50.850;4.446;2024-03-25T03:51:07;4.00;1.00
23783;DHT22;12071;50.850;4.446;2024-03-25T03:53:34;4.00;1.00
23783;DHT22;12071;50.850;4.446;2024-03-25T03:56:02;4.10;1.00
23783;DHT22;12071;50.850;4.446;2024-03-25T03:58:28;4.30;1.00
23783;DHT22;12071;50.850;4.446;2024-03-25T04:00:54;4.30;1.00
23783;DHT22;12071;50.850;4.446;2024-03-25T04:03:20;4.30;1.00
23783;DHT22;12071;50.850;4.446;2024-03-25T04:05:46;4.50;1.00
23783;DHT22;12071;50.850;4.446;2024-03-25T04:08:11;4.60;1.00
23783;DHT22;12071;50.850;4.446;2024-03-25T04:10:38;4.50;1.00
23783;DHT22;12071;50.850;4.446;2024-03-25T04:13:04;4.20;1.00
23783;DHT22;12071;50.850;4.446;2024-03-25T04:15:36;4.30;1.00
23783;DHT22;12071;50.850;4.446;2024-03-25T04:18:03;4.40;1.00
23783;DHT22;12071;50.850;4.446;2024-03-25T04:20:29;4.30;1.00
23783;DHT22;12071;50.850;4.446;2024-03-25T04:22:55;4.10;1.00
23783;DHT22;12071;50.850;4.446;2024-03-25T04:25:22;4.40;1.00
23783;DHT22;12071;50.850;4.446;2024-03-25T04:27:48;4.20;1.00
23783;DHT22;12071;50.850;4.446;2024-03-25T04:30:14;4.00;1.00
23783;DHT22;12071;50.850;4.446;2024-03-25T04:32:40;4.00;1.00
23783;DHT22;12071;50.850;4.446;2024-03-25T04:35:06;3.80;1.00
23783;DHT22;12071;50.850;4.446;2024-03-25T04:37:33;3.90;1.00
23783;DHT22;12071;50.850;4.446;2024-03-25T04:39:58;3.80;1.00
23783;DHT22;12071;50.850;4.446;2024-03-25T04:42:24;3.80;1.00
23783;DHT22;12071;50.850;4.446;2024-03-25T04:44:50;3.80;1.00
23783;DHT22;12071;50.850;4.446;2024-03-25T04:47:16;4.20;1.00
23783;DHT22;12071;50.850;4.446;2024-03-25T04:49:43;4.40;1.00
23783;DHT22;12071;50.850;4.446;2024-03-25T04:52:09;4.70;1.00
23783;DHT22;12071;50.850;4.446;2024-03-25T04:54:35;4.60;1.00
23783;DHT22;12071;50.850;4.446;2024-03-25T04:57:00;4.50;1.00
23783;DHT22;12071;50.850;4.446;2024-03-25T04:59:26;4.30;1.00
23783;DHT22;12071;50.850;4.446;2024-03-25T05:01:52;4.00;1.00
23783;DHT22;12071;50.850;4.446;2024-03-25T05:04:18;3.80;1.00
23783;DHT22;12071;50.850;4.446;2024-03-25T05:06:44;3.70;1.00
23783;DHT22;12071;50.850;4.446;2024-03-25T05:09:09;3.70;1.00
23783;DHT22;12071;50.850;4.446;2024-03-25T05:11:35;3.90;1.00
23783;DHT22;12071;50.850;4.446;2024-03-25T05:14:01;4.20;1.00
23783;DHT22;12071;50.850;4.446;2024-03-25T05:16:27;4.40;1.00
23783;DHT22;12071;50.850;4.446;2024-03-25T05:18:52;4.40;1.00
23783;DHT22;12071;50.850;4.446;2024-03-25T05:21:18;4.20;1.00
23783;DHT22;12071;50.850;4.446;2024-03-25T05:23:44;4.00;1.00
23783;DHT22;12071;50.850;4.446;2024-03-25T05:26:10;4.00;1.00
23783;DHT22;12071;50.850;4.446;2024-03-25T05:28:35;4.00;1.00
23783;DHT22;12071;50.850;4.446;2024-03-25T05:31:10;3.90;1.00
23783;DHT22;12071;50.850;4.446;2024-03-25T05:33:36;3.70;1.00
23783;DHT22;12071;50.850;4.446;2024-03-25T05:36:03;3.90;1.00
23783;DHT22;12071;50.850;4.446;2024-03-25T05:38:29;4.10;1.00
23783;DHT22;12071;50.850;4.446;2024-03-25T05:40:55;4.20;1.00
23783;DHT22;12071;50.850;4.446;2024-03-25T05:43:21;4.00;1.00
23783;DHT22;12071;50.850;4.446;2024-03-25T05:45:56;3.90;1.00
23783;DHT22;12071;50.850;4.446;2024-03-25T05:48:24;3.90;1.00
23783;DHT22;12071;50.850;4.446;2024-03-25T05:51:06;3.90;1.00
23783;DHT22;12071;50.850;4.446;2024-03-25T05:53:36;4.00;1.00
23783;DHT22;12071;50.850;4.446;2024-03-25T05:56:03;4.30;1.00
23783;DHT22;12071;50.850;4.446;2024-03-25T05:58:29;4.40;1.00
23783;DHT22;12071;50.850;4.446;2024-03-25T06:00:55;4.90;1.00
23783;DHT22;12071;50.850;4.446;2024-03-25T06:03:21;5.00;1.00
23783;DHT22;12071;50.850;4.446;2024-03-25T06:05:47;4.90;1.00
23783;DHT22;12071;50.850;4.446;2024-03-25T06:08:13;4.90;1.00
23783;DHT22;12071;50.850;4.446;2024-03-25T06:10:54;4.70;1.00
23783;DHT22;12071;50.850;4.446;2024-03-25T06:13:20;4.70;1.00
23783;DHT22;12071;50.850;4.446;2024-03-25T06:15:46;4.80;1.00
23783;DHT22;12071;50.850;4.446;2024-03-25T06:18:12;4.80;1.00
23783;DHT22;12071;50.850;4.446;2024-03-25T06:20:38;4.90;1.00
23783;DHT22;12071;50.850;4.446;2024-03-25T06:23:04;5.10;1.00
23783;DHT22;12071;50.850;4.446;2024-03-25T06:25:30;5.20;1.00
23783;DHT22;12071;50.850;4.446;2024-03-25T06:27:56;5.10;1.00
23783;DHT22;12071;50.850;4.446;2024-03-25T06:30:22;5.30;1.00
23783;DHT22;12071;50.850;4.446;2024-03-25T06:33:07;5.40;1.00
23783;DHT22;12071;50.850;4.446;2024-03-25T06:35:51;5.40;1.00
23783;DHT22;12071;50.850;4.446;2024-03-25T06:38:17;5.40;1.00
23783;DHT22;12071;50.850;4.446;2024-03-25T06:40:44;5.50;1.00
23783;DHT22;12071;50.850;4.446;2024-03-25T06:43:10;5.30;1.00
23783;DHT22;12071;50.850;4.446;2024-03-25T06:45:36;5.30;1.00
23783;DHT22;12071;50.850;4.446;2024-03-25T06:48:01;5.40;1.00
23783;DHT22;12071;50.850;4.446;2024-03-25T06:50:27;5.50;1.00
23783;DHT22;12071;50.850;4.446;2024-03-25T06:52:52;5.80;1.00
23783;DHT22;12071;50.850;4.446;2024-03-25T06:55:18;6.10;1.00
23783;DHT22;12071;50.850;4.446;2024-03-25T06:57:50;6.20;1.00
23783;DHT22;12071;50.850;4.446;2024-03-25T07:00:16;6.30;1.00
23783;DHT22;12071;50.850;4.446;2024-03-25T07:02:42;6.40;1.00
23783;DHT22;12071;50.850;4.446;2024-03-25T07:05:08;6.50;1.00
23783;DHT22;12071;50.850;4.446;2024-03-25T07:07:34;6.30;1.00
23783;DHT22;12071;50.850;4.446;2024-03-25T07:10:00;6.50;1.00
23783;DHT22;12071;50.850;4.446;2024-03-25T07:12:26;6.30;1.00
23783;DHT22;12071;50.850;4.446;2024-03-25T07:14:53;6.30;1.00
23783;DHT22;12071;50.850;4.446;2024-03-25T07:17:18;6.40;1.00
23783;DHT22;12071;50.850;4.446;2024-03-25T07:19:44;6.50;1.00
23783;DHT22;12071;50.850;4.446;2024-03-25T07:22:10;6.60;1.00
23783;DHT22;12071;50.850;4.446;2024-03-25T07:24:36;6.80;1.00
23783;DHT22;12071;50.850;4.446;2024-03-25T07:27:02;6.60;1.00
23783;DHT22;12071;50.850;4.446;2024-03-25T07:29:28;6.90;1.00
23783;DHT22;12071;50.850;4.446;2024-03-25T07:31:54;6.90;1.00
23783;DHT22;12071;50.850;4.446;2024-03-25T07:34:19;7.10;1.00
23783;DHT22;12071;50.850;4.446;2024-03-25T07:36:45;7.10;1.00
23783;DHT22;12071;50.850;4.446;2024-03-25T07:39:11;7.00;1.00
23783;DHT22;12071;50.850;4.446;2024-03-25T07:41:37;7.00;1.00
23783;DHT22;12071;50.850;4.446;2024-03-25T07:44:03;7.10;1.00
23783;DHT22;12071;50.850;4.446;2024-03-25T07:46:30;7.50;1.00
23783;DHT22;12071;50.850;4.446;2024-03-25T07:48:55;7.50;1.00
23783;DHT22;12071;50.850;4.446;2024-03-25T07:51:21;7.60;1.00
23783;DHT22;12071;50.850;4.446;2024-03-25T07:53:48;7.50;1.00
23783;DHT22;12071;50.850;4.446;2024-03-25T07:56:17;7.70;1.00
23783;DHT22;12071;50.850;4.446;2024-03-25T07:58:43;7.70;1.00
23783;DHT22;12071;50.850;4.446;2024-03-25T08:01:09;7.70;1.00
23783;DHT22;12071;50.850;4.446;2024-03-25T08:03:34;7.90;1.00
23783;DHT22;12071;50.850;4.446;2024-03-25T08:06:00;8.00;1.00
23783;DHT22;12071;50.850;4.446;2024-03-25T08:08:26;8.10;1.00
23783;DHT22;12071;50.850;4.446;2024-03-25T08:10:52;8.40;1.00
23783;DHT22;12071;50.850;4.446;2024-03-25T08:13:18;8.40;1.00
23783;DHT22;12071;50.850;4.446;2024-03-25T08:15:45;8.60;1.00
23783;DHT22;12071;50.850;4.446;2024-03-25T08:18:11;8.50;1.00
23783;DHT22;12071;50.850;4.446;2024-03-25T08:20:38;8.70;1.00
23783;DHT22;12071;50.850;4.446;2024-03-25T08:23:04;8.50;1.00
23783;DHT22;12071;50.850;4.446;2024-03-25T08:25:29;8.50;1.00
23783;DHT22;12071;50.850;4.446;2024-03-25T08:27:55;8.40;1.00
23783;DHT22;12071;50.850;4.446;2024-03-25T08:30:21;8.60;1.00
23783;DHT22;12071;50.850;4.446;2024-03-25T08:32:46;8.40;1.00
23783;DHT22;12071;50.850;4.446;2024-03-25T08:35:12;8.60;1.00
23783;DHT22;12071;50.850;4.446;2024-03-25T08:37:38;8.40;1.00
23783;DHT22;12071;50.850;4.446;2024-03-25T08:40:07;8.50;1.00
23783;DHT22;12071;50.850;4.446;2024-03-25T08:42:33;8.90;1.00
23783;DHT22;12071;50.850;4.446;2024-03-25T08:44:59;8.90;1.00
23783;DHT22;12071;50.850;4.446;2024-03-25T08:47:25;9.00;1.00
23783;DHT22;12071;50.850;4.446;2024-03-25T08:49:51;9.50;1.00
23783;DHT22;12071;50.850;4.446;2024-03-25T08:52:17;9.70;99.90
23783;DHT22;12071;50.850;4.446;2024-03-25T08:54:43;9.70;99.90
23783;DHT22;12071;50.850;4.446;2024-03-25T08:57:09;9.70;99.90
23783;DHT22;12071;50.850;4.446;2024-03-25T08:59:35;9.90;99.90
23783;DHT22;12071;50.850;4.446;2024-03-25T09:02:01;9.80;99.90
23783;DHT22;12071;50.850;4.446;2024-03-25T09:04:26;9.70;99.90
23783;DHT22;12071;50.850;4.446;2024-03-25T09:06:53;9.90;99.90
23783;DHT22;12071;50.850;4.446;2024-03-25T09:09:19;9.80;99.90
23783;DHT22;12071;50.850;4.446;2024-03-25T09:12:03;9.80;99.90
23783;DHT22;12071;50.850;4.446;2024-03-25T09:14:29;9.90;60.90
23783;DHT22;12071;50.850;4.446;2024-03-25T09:16:54;9.90;92.80
23783;DHT22;12071;50.850;4.446;2024-03-25T09:19:20;10.10;43.30
23783;DHT22;12071;50.850;4.446;2024-03-25T09:21:47;10.30;1.00
23783;DHT22;12071;50.850;4.446;2024-03-25T09:24:12;10.40;99.90
23783;DHT22;12071;50.850;4.446;2024-03-25T09:26:43;10.40;99.90
23783;DHT22;12071;50.850;4.446;2024-03-25T09:29:09;10.30;99.90
23783;DHT22;12071;50.850;4.446;2024-03-25T09:31:37;10.50;99.90
23783;DHT22;12071;50.850;4.446;2024-03-25T09:34:02;10.60;99.90
23783;DHT22;12071;50.850;4.446;2024-03-25T09:36:28;10.70;99.90
23783;DHT22;12071;50.850;4.446;2024-03-25T09:38:55;10.70;1.00
23783;DHT22;12071;50.850;4.446;2024-03-25T09:41:20;10.70;3.90
23783;DHT22;12071;50.850;4.446;2024-03-25T09:43:54;10.90;41.00
23783;DHT22;12071;50.850;4.446;2024-03-25T09:46:23;10.80;99.90
23783;DHT22;12071;50.850;4.446;2024-03-25T09:48:52;11.00;99.90
23783;DHT22;12071;50.850;4.446;2024-03-25T09:51:19;11.20;1.00
23783;DHT22;12071;50.850;4.446;2024-03-25T09:53:45;11.50;99.90
23783;DHT22;12071;50.850;4.446;2024-03-25T09:56:14;11.60;99.90
23783;DHT22;12071;50.850;4.446;2024-03-25T09:58:42;11.70;99.90
23783;DHT22;12071;50.850;4.446;2024-03-25T10:01:09;11.80;99.90
23783;DHT22;12071;50.850;4.446;2024-03-25T10:03:35;11.80;99.90
23783;DHT22;12071;50.850;4.446;2024-03-25T10:06:01;11.70;99.90
23783;DHT22;12071;50.850;4.446;2024-03-25T10:08:27;11.90;99.90
23783;DHT22;12071;50.850;4.446;2024-03-25T10:10:55;12.20;99.90
23783;DHT22;12071;50.850;4.446;2024-03-25T10:13:22;12.00;50.30
23783;DHT22;12071;50.850;4.446;2024-03-25T10:15:48;12.20;99.90
23783;DHT22;12071;50.850;4.446;2024-03-25T10:18:14;12.30;99.90
23783;DHT22;12071;50.850;4.446;2024-03-25T10:20:53;12.20;1.00
23783;DHT22;12071;50.850;4.446;2024-03-25T10:23:23;12.30;1.00
23783;DHT22;12071;50.850;4.446;2024-03-25T10:25:51;12.40;99.90
23783;DHT22;12071;50.850;4.446;2024-03-25T10:28:17;12.50;99.90
23783;DHT22;12071;50.850;4.446;2024-03-25T10:30:43;12.50;99.90
23783;DHT22;12071;50.850;4.446;2024-03-25T10:33:08;12.70;99.90
23783;DHT22;12071;50.850;4.446;2024-03-25T10:35:35;13.00;99.90
23783;DHT22;12071;50.850;4.446;2024-03-25T10:38:06;13.10;6.10
23783;DHT22;12071;50.850;4.446;2024-03-25T10:40:39;13.30;1.00
23783;DHT22;12071;50.850;4.446;2024-03-25T10:43:10;13.60;1.00
23783;DHT22;12071;50.850;4.446;2024-03-25T10:45:49;13.60;87.10
23783;DHT22;12071;50.850;4.446;2024-03-25T10:48:19;13.70;99.90
23783;DHT22;12071;50.850;4.446;2024-03-25T10:50:46;13.60;99.90
23783;DHT22;12071;50.850;4.446;2024-03-25T10:53:12;13.60;99.90
23783;DHT22;12071;50.850;4.446;2024-03-25T10:55:40;13.80;1.00
23783;DHT22;12071;50.850;4.446;2024-03-25T10:58:07;13.70;1.00
23783;DHT22;12071;50.850;4.446;2024-03-25T11:00:35;13.80;1.00
23783;DHT22;12071;50.850;4.446;2024-03-25T11:03:02;13.90;99.90
23783;DHT22;12071;50.850;4.446;2024-03-25T11:05:28;13.80;99.90
23783;DHT22;12071;50.850;4.446;2024-03-25T11:07:54;13.60;99.90
23783;DHT22;12071;50.850;4.446;2024-03-25T11:10:29;13.80;99.90
23783;DHT22;12071;50.850;4.446;2024-03-25T11:12:55;13.90;99.90
23783;DHT22;12071;50.850;4.446;2024-03-25T11:15:21;14.10;99.90
23783;DHT22;12071;50.850;4.446;2024-03-25T11:17:50;14.10;99.90
23783;DHT22;12071;50.850;4.446;2024-03-25T11:20:16;14.20;99.90
23783;DHT22;12071;50.850;4.446;2024-03-25T11:22:49;13.90;89.30
23783;DHT22;12071;50.850;4.446;2024-03-25T11:25:16;13.80;57.00
23783;DHT22;12071;50.850;4.446;2024-03-25T11:27:45;13.90;64.40
23783;DHT22;12071;50.850;4.446;2024-03-25T11:30:12;13.90;26.80
23783;DHT22;12071;50.850;4.446;2024-03-25T11:32:51;14.10;24.30
23783;DHT22;12071;50.850;4.446;2024-03-25T11:35:18;14.40;1.00
23783;DHT22;12071;50.850;4.446;2024-03-25T11:37:44;14.60;41.00
23783;DHT22;12071;50.850;4.446;2024-03-25T11:40:12;14.70;1.00
23783;DHT22;12071;50.850;4.446;2024-03-25T11:42:39;14.60;1.00
23783;DHT22;12071;50.850;4.446;2024-03-25T11:45:17;14.00;1.00
23783;DHT22;12071;50.850;4.446;2024-03-25T11:47:48;14.10;1.00
23783;DHT22;12071;50.850;4.446;2024-03-25T11:50:15;14.50;1.00
23783;DHT22;12071;50.850;4.446;2024-03-25T11:52:41;14.70;1.00
23783;DHT22;12071;50.850;4.446;2024-03-25T11:55:09;14.90;1.00
23783;DHT22;12071;50.850;4.446;2024-03-25T11:57:36;14.90;99.90
23783;DHT22;12071;50.850;4.446;2024-03-25T12:00:03;14.70;99.90
23783;DHT22;12071;50.850;4.446;2024-03-25T12:02:32;14.80;99.90
23783;DHT22;12071;50.850;4.446;2024-03-25T12:04:58;15.10;99.90
23783;DHT22;12071;50.850;4.446;2024-03-25T12:07:23;15.20;99.90
23783;DHT22;12071;50.850;4.446;2024-03-25T12:09:49;15.40;99.90
23783;DHT22;12071;50.850;4.446;2024-03-25T12:12:33;15.50;99.90
23783;DHT22;12071;50.850;4.446;2024-03-25T12:15:06;15.10;99.90
23783;DHT22;12071;50.850;4.446;2024-03-25T12:17:33;15.20;99.90
23783;DHT22;12071;50.850;4.446;2024-03-25T12:20:04;15.50;99.90
23783;DHT22;12071;50.850;4.446;2024-03-25T12:22:33;15.60;99.90
23783;DHT22;12071;50.850;4.446;2024-03-25T12:25:01;15.40;99.90
23783;DHT22;12071;50.850;4.446;2024-03-25T12:27:28;15.50;99.90
23783;DHT22;12071;50.850;4.446;2024-03-25T12:30:05;15.60;99.90
23783;DHT22;12071;50.850;4.446;2024-03-25T12:32:39;15.90;99.90
23783;DHT22;12071;50.850;4.446;2024-03-25T12:37:43;16.00;99.90
23783;DHT22;12071;50.850;4.446;2024-03-25T12:40:11;16.10;99.90
23783;DHT22;12071;50.850;4.446;2024-03-25T12:42:37;15.80;99.90
23783;DHT22;12071;50.850;4.446;2024-03-25T12:45:08;15.70;99.90
23783;DHT22;12071;50.850;4.446;2024-03-25T12:47:34;15.90;99.90
23783;DHT22;12071;50.850;4.446;2024-03-25T12:49:59;15.60;99.90
23783;DHT22;12071;50.850;4.446;2024-03-25T12:52:26;15.40;99.90
23783;DHT22;12071;50.850;4.446;2024-03-25T12:54:52;15.40;99.90
23783;DHT22;12071;50.850;4.446;2024-03-25T12:57:17;15.40;99.90
23783;DHT22;12071;50.850;4.446;2024-03-25T12:59:44;15.30;99.90
23783;DHT22;12071;50.850;4.446;2024-03-25T13:02:12;15.30;99.90
23783;DHT22;12071;50.850;4.446;2024-03-25T13:04:38;16.00;99.90
23783;DHT22;12071;50.850;4.446;2024-03-25T13:07:05;16.30;99.90
23783;DHT22;12071;50.850;4.446;2024-03-25T13:09:31;16.90;99.90
23783;DHT22;12071;50.850;4.446;2024-03-25T13:11:57;17.10;99.90
23783;DHT22;12071;50.850;4.446;2024-03-25T13:14:23;17.00;99.90
23783;DHT22;12071;50.850;4.446;2024-03-25T13:16:49;16.80;99.90
23783;DHT22;12071;50.850;4.446;2024-03-25T13:19:15;16.40;99.90
23783;DHT22;12071;50.850;4.446;2024-03-25T13:21:41;16.30;99.90
23783;DHT22;12071;50.850;4.446;2024-03-25T13:24:07;16.30;99.90
23783;DHT22;12071;50.850;4.446;2024-03-25T13:26:33;16.00;99.90
23783;DHT22;12071;50.850;4.446;2024-03-25T13:28:59;16.00;99.90
23783;DHT22;12071;50.850;4.446;2024-03-25T13:31:26;16.00;99.90
23783;DHT22;12071;50.850;4.446;2024-03-25T13:33:52;15.80;99.90
23783;DHT22;12071;50.850;4.446;2024-03-25T13:36:18;15.90;99.90
23783;DHT22;12071;50.850;4.446;2024-03-25T13:38:44;15.80;99.90
23783;DHT22;12071;50.850;4.446;2024-03-25T13:41:10;15.80;99.90
23783;DHT22;12071;50.850;4.446;2024-03-25T13:43:38;16.20;99.90
23783;DHT22;12071;50.850;4.446;2024-03-25T13:46:07;16.70;99.90
23783;DHT22;12071;50.850;4.446;2024-03-25T13:48:33;16.90;99.90
23783;DHT22;12071;50.850;4.446;2024-03-25T13:50:58;17.30;99.90
23783;DHT22;12071;50.850;4.446;2024-03-25T13:53:24;17.60;99.90
23783;DHT22;12071;50.850;4.446;2024-03-25T13:55:51;17.90;99.90
23783;DHT22;12071;50.850;4.446;2024-03-25T13:58:16;18.00;99.90
23783;DHT22;12071;50.850;4.446;2024-03-25T14:00:42;17.80;99.90
23783;DHT22;12071;50.850;4.446;2024-03-25T14:03:08;17.60;99.90
23783;DHT22;12071;50.850;4.446;2024-03-25T14:05:33;17.90;99.90
23783;DHT22;12071;50.850;4.446;2024-03-25T14:08:00;17.70;99.90
23783;DHT22;12071;50.850;4.446;2024-03-25T14:10:26;17.60;99.90
23783;DHT22;12071;50.850;4.446;2024-03-25T14:12:51;18.20;99.90
23783;DHT22;12071;50.850;4.446;2024-03-25T14:15:17;18.60;99.90
23783;DHT22;12071;50.850;4.446;2024-03-25T14:17:44;18.90;99.90
23783;DHT22;12071;50.850;4.446;2024-03-25T14:20:10;19.00;99.90
23783;DHT22;12071;50.850;4.446;2024-03-25T14:22:36;19.80;99.90
23783;DHT22;12071;50.850;4.446;2024-03-25T14:25:02;20.20;99.90
23783;DHT22;12071;50.850;4.446;2024-03-25T14:27:28;20.90;99.90
23783;DHT22;12071;50.850;4.446;2024-03-25T14:29:53;21.00;99.90
23783;DHT22;12071;50.850;4.446;2024-03-25T14:32:20;20.90;99.90
23783;DHT22;12071;50.850;4.446;2024-03-25T14:34:46;21.00;99.90
23783;DHT22;12071;50.850;4.446;2024-03-25T14:37:13;20.00;99.90
23783;DHT22;12071;50.850;4.446;2024-03-25T14:39:38;19.70;99.90
23783;DHT22;12071;50.850;4.446;2024-03-25T14:42:05;19.80;99.90
23783;DHT22;12071;50.850;4.446;2024-03-25T14:44:31;19.90;99.90
23783;DHT22;12071;50.850;4.446;2024-03-25T14:46:56;20.40;99.90
23783;DHT22;12071;50.850;4.446;2024-03-25T14:49:25;20.70;99.90
23783;DHT22;12071;50.850;4.446;2024-03-25T14:51:51;20.90;99.90
23783;DHT22;12071;50.850;4.446;2024-03-25T14:54:19;20.90;99.90
23783;DHT22;12071;50.850;4.446;2024-03-25T14:56:48;21.10;99.90
23783;DHT22;12071;50.850;4.446;2024-03-25T14:59:14;20.70;99.90
23783;DHT22;12071;50.850;4.446;2024-03-25T15:01:40;21.00;99.90
23783;DHT22;12071;50.850;4.446;2024-03-25T15:04:06;21.50;99.90
23783;DHT22;12071;50.850;4.446;2024-03-25T15:06:33;21.30;99.90
23783;DHT22;12071;50.850;4.446;2024-03-25T15:08:59;20.80;99.90
23783;DHT22;12071;50.850;4.446;2024-03-25T15:11:26;20.30;99.90
23783;DHT22;12071;50.850;4.446;2024-03-25T15:13:54;20.40;99.90
23783;DHT22;12071;50.850;4.446;2024-03-25T15:16:20;20.40;99.90
23783;DHT22;12071;50.850;4.446;2024-03-25T15:18:47;20.30;99.90
23783;DHT22;12071;50.850;4.446;2024-03-25T15:21:13;20.40;99.90
23783;DHT22;12071;50.850;4.446;2024-03-25T15:23:39;20.50;99.90
23783;DHT22;12071;50.850;4.446;2024-03-25T15:26:05;19.80;99.90
23783;DHT22;12071;50.850;4.446;2024-03-25T15:28:31;19.50;99.90
23783;DHT22;12071;50.850;4.446;2024-03-25T15:30:59;19.40;99.90
23783;DHT22;12071;50.850;4.446;2024-03-25T15:33:24;19.60;99.90
23783;DHT22;12071;50.850;4.446;2024-03-25T15:35:50;19.60;99.90
23783;DHT22;12071;50.850;4.446;2024-03-25T15:38:17;19.50;99.90
23783;DHT22;12071;50.850;4.446;2024-03-25T15:40:43;19.00;99.90
23783;DHT22;12071;50.850;4.446;2024-03-25T15:43:11;18.60;99.90
23783;DHT22;12071;50.850;4.446;2024-03-25T15:45:37;18.30;99.90
23783;DHT22;12071;50.850;4.446;2024-03-25T15:48:03;18.20;99.90